sensor_id;sensor_type;location;lat;lon;timestamp;P1;durP1;ratioP1;P2;durP2;ratioP2
49614;SDS011;35517;45.272;9.984;2023-04-24T00:02:12;6.75;;;3.70;;
49614;SDS011;35517;45.272;9.984;2023-04-24T00:04:39;7.10;;;3.35;;
49614;SDS011;35517;45.272;9.984;2023-04-24T00:07:06;8.18;;;3.38;;
49614;SDS011;35517;45.272;9.984;2023-04-24T00:09:33;12.18;;;4.65;;
49614;SDS011;35517;45.272;9.984;2023-04-24T00:12:01;5.97;;;4.03;;
49614;SDS011;35517;45.272;9.984;2023-04-24T00:14:30;7.20;;;3.40;;
49614;SDS011;35517;45.272;9.984;2023-04-24T00:16:57;4.88;;;3.53;;
49614;SDS011;35517;45.272;9.984;2023-04-24T00:19:23;13.32;;;5.18;;
49614;SDS011;35517;45.272;9.984;2023-04-24T00:21:49;5.53;;;3.85;;
49614;SDS011;35517;45.272;9.984;2023-04-24T00:24:17;8.13;;;3.95;;
49614;SDS011;35517;45.272;9.984;2023-04-24T00:26:43;7.85;;;3.65;;
49614;SDS011;35517;45.272;9.984;2023-04-24T00:29:10;7.20;;;3.92;;
49614;SDS011;35517;45.272;9.984;2023-04-24T00:31:36;13.43;;;4.28;;
49614;SDS011;35517;45.272;9.984;2023-04-24T00:34:03;8.82;;;3.95;;
49614;SDS011;35517;45.272;9.984;2023-04-24T00:36:30;6.55;;;3.63;;
49614;SDS011;35517;45.272;9.984;2023-04-24T00:39:12;3.72;;;3.05;;
49614;SDS011;35517;45.272;9.984;2023-04-24T00:41:38;8.13;;;3.55;;
49614;SDS011;35517;45.272;9.984;2023-04-24T00:44:05;5.22;;;3.80;;
49614;SDS011;35517;45.272;9.984;2023-04-24T00:46:32;6.68;;;4.28;;
49614;SDS011;35517;45.272;9.984;2023-04-24T00:48:59;4.75;;;4.15;;
49614;SDS011;35517;45.272;9.984;2023-04-24T00:51:25;7.00;;;4.07;;
49614;SDS011;35517;45.272;9.984;2023-04-24T00:56:39;6.38;;;3.70;;
49614;SDS011;35517;45.272;9.984;2023-04-24T00:59:06;5.43;;;3.50;;
49614;SDS011;35517;45.272;9.984;2023-04-24T01:10:41;5.78;;;3.40;;
49614;SDS011;35517;45.272;9.984;2023-04-24T01:13:08;6.15;;;4.00;;
49614;SDS011;35517;45.272;9.984;2023-04-24T01:15:35;6.20;;;4.00;;
49614;SDS011;35517;45.272;9.984;2023-04-24T01:18:02;8.02;;;4.70;;
49614;SDS011;35517;45.272;9.984;2023-04-24T01:20:32;8.52;;;5.20;;
49614;SDS011;35517;45.272;9.984;2023-04-24T01:23:00;7.55;;;4.95;;
49614;SDS011;35517;45.272;9.984;2023-04-24T01:25:26;6.10;;;4.50;;
49614;SDS011;35517;45.272;9.984;2023-04-24T01:27:58;13.10;;;4.05;;
49614;SDS011;35517;45.272;9.984;2023-04-24T01:30:26;6.68;;;3.60;;
49614;SDS011;35517;45.272;9.984;2023-04-24T01:32:53;6.07;;;3.55;;
49614;SDS011;35517;45.272;9.984;2023-04-24T01:35:19;4.18;;;3.15;;
49614;SDS011;35517;45.272;9.984;2023-04-24T01:37:46;5.80;;;4.30;;
49614;SDS011;35517;45.272;9.984;2023-04-24T01:40:12;4.13;;;3.22;;
49614;SDS011;35517;45.272;9.984;2023-04-24T01:42:40;8.32;;;3.88;;
49614;SDS011;35517;45.272;9.984;2023-04-24T01:45:17;4.55;;;2.97;;
49614;SDS011;35517;45.272;9.984;2023-04-24T01:47:43;4.32;;;3.15;;
49614;SDS011;35517;45.272;9.984;2023-04-24T01:50:10;8.68;;;3.30;;
49614;SDS011;35517;45.272;9.984;2023-04-24T01:52:38;5.18;;;4.13;;
49614;SDS011;35517;45.272;9.984;2023-04-24T01:55:05;7.90;;;4.68;;
49614;SDS011;35517;45.272;9.984;2023-04-24T01:57:32;7.35;;;3.45;;
49614;SDS011;35517;45.272;9.984;2023-04-24T02:00:03;5.03;;;3.30;;
49614;SDS011;35517;45.272;9.984;2023-04-24T02:02:39;8.98;;;3.55;;
49614;SDS011;35517;45.272;9.984;2023-04-24T02:05:06;6.75;;;3.83;;
49614;SDS011;35517;45.272;9.984;2023-04-24T02:07:35;6.97;;;3.95;;
49614;SDS011;35517;45.272;9.984;2023-04-24T02:10:02;8.23;;;4.18;;
49614;SDS011;35517;45.272;9.984;2023-04-24T02:12:32;9.27;;;4.70;;
49614;SDS011;35517;45.272;9.984;2023-04-24T02:14:58;11.07;;;4.68;;
49614;SDS011;35517;45.272;9.984;2023-04-24T02:17:25;7.95;;;4.82;;
49614;SDS011;35517;45.272;9.984;2023-04-24T02:19:52;12.13;;;5.00;;
49614;SDS011;35517;45.272;9.984;2023-04-24T02:22:18;11.75;;;5.32;;
49614;SDS011;35517;45.272;9.984;2023-04-24T02:24:45;7.70;;;4.88;;
49614;SDS011;35517;45.272;9.984;2023-04-24T02:27:14;9.52;;;7.05;;
49614;SDS011;35517;45.272;9.984;2023-04-24T02:29:41;7.30;;;4.72;;
49614;SDS011;35517;45.272;9.984;2023-04-24T02:32:07;6.90;;;4.93;;
49614;SDS011;35517;45.272;9.984;2023-04-24T02:34:37;11.13;;;5.13;;
49614;SDS011;35517;45.272;9.984;2023-04-24T02:37:04;8.98;;;5.53;;
49614;SDS011;35517;45.272;9.984;2023-04-24T02:39:30;8.90;;;4.72;;
49614;SDS011;35517;45.272;9.984;2023-04-24T02:41:57;6.18;;;4.70;;
49614;SDS011;35517;45.272;9.984;2023-04-24T02:44:23;13.82;;;4.55;;
49614;SDS011;35517;45.272;9.984;2023-04-24T02:46:50;8.30;;;3.92;;
49614;SDS011;35517;45.272;9.984;2023-04-24T02:49:16;7.65;;;4.05;;
49614;SDS011;35517;45.272;9.984;2023-04-24T02:51:43;8.50;;;4.57;;
49614;SDS011;35517;45.272;9.984;2023-04-24T02:54:09;5.53;;;4.55;;
49614;SDS011;35517;45.272;9.984;2023-04-24T02:56:36;9.65;;;3.50;;
49614;SDS011;35517;45.272;9.984;2023-04-24T02:59:04;7.43;;;3.90;;
49614;SDS011;35517;45.272;9.984;2023-04-24T03:01:31;7.50;;;3.95;;
49614;SDS011;35517;45.272;9.984;2023-04-24T03:03:58;6.85;;;4.00;;
49614;SDS011;35517;45.272;9.984;2023-04-24T03:06:25;6.55;;;4.10;;
49614;SDS011;35517;45.272;9.984;2023-04-24T03:08:52;5.75;;;4.25;;
49614;SDS011;35517;45.272;9.984;2023-04-24T03:11:20;8.73;;;4.60;;
49614;SDS011;35517;45.272;9.984;2023-04-24T03:13:46;6.63;;;4.15;;
49614;SDS011;35517;45.272;9.984;2023-04-24T03:16:13;9.10;;;4.65;;
49614;SDS011;35517;45.272;9.984;2023-04-24T03:18:39;6.30;;;4.32;;
49614;SDS011;35517;45.272;9.984;2023-04-24T03:21:07;8.13;;;4.60;;
49614;SDS011;35517;45.272;9.984;2023-04-24T03:23:34;8.38;;;5.18;;
49614;SDS011;35517;45.272;9.984;2023-04-24T03:26:00;9.73;;;4.22;;
49614;SDS011;35517;45.272;9.984;2023-04-24T03:28:28;10.02;;;5.28;;
49614;SDS011;35517;45.272;9.984;2023-04-24T03:30:58;8.77;;;4.55;;
49614;SDS011;35517;45.272;9.984;2023-04-24T03:33:28;6.55;;;4.75;;
49614;SDS011;35517;45.272;9.984;2023-04-24T03:36:00;5.32;;;4.75;;
49614;SDS011;35517;45.272;9.984;2023-04-24T03:38:33;7.10;;;4.72;;
49614;SDS011;35517;45.272;9.984;2023-04-24T03:41:09;5.35;;;3.90;;
49614;SDS011;35517;45.272;9.984;2023-04-24T03:43:45;5.05;;;4.55;;
49614;SDS011;35517;45.272;9.984;2023-04-24T03:46:12;7.05;;;4.85;;
49614;SDS011;35517;45.272;9.984;2023-04-24T03:48:43;6.60;;;4.43;;
49614;SDS011;35517;45.272;9.984;2023-04-24T03:51:10;6.68;;;4.35;;
49614;SDS011;35517;45.272;9.984;2023-04-24T03:53:40;5.78;;;4.80;;
49614;SDS011;35517;45.272;9.984;2023-04-24T03:56:07;8.88;;;4.78;;
49614;SDS011;35517;45.272;9.984;2023-04-24T03:58:34;6.43;;;5.22;;
49614;SDS011;35517;45.272;9.984;2023-04-24T04:01:00;8.05;;;5.00;;
49614;SDS011;35517;45.272;9.984;2023-04-24T04:03:46;6.15;;;4.03;;
49614;SDS011;35517;45.272;9.984;2023-04-24T04:06:17;10.05;;;5.88;;
49614;SDS011;35517;45.272;9.984;2023-04-24T04:08:45;8.75;;;5.50;;
49614;SDS011;35517;45.272;9.984;2023-04-24T04:11:12;6.78;;;5.10;;
49614;SDS011;35517;45.272;9.984;2023-04-24T04:13:39;6.28;;;5.13;;
49614;SDS011;35517;45.272;9.984;2023-04-24T04:16:06;9.77;;;4.65;;
49614;SDS011;35517;45.272;9.984;2023-04-24T04:18:32;7.90;;;5.50;;
49614;SDS011;35517;45.272;9.984;2023-04-24T04:20:59;7.30;;;5.22;;
49614;SDS011;35517;45.272;9.984;2023-04-24T04:23:27;5.28;;;4.45;;
49614;SDS011;35517;45.272;9.984;2023-04-24T04:26:04;6.32;;;4.45;;
49614;SDS011;35517;45.272;9.984;2023-04-24T04:28:53;8.18;;;4.28;;
49614;SDS011;35517;45.272;9.984;2023-04-24T04:31:20;8.13;;;4.40;;
49614;SDS011;35517;45.272;9.984;2023-04-24T04:33:48;7.05;;;4.15;;
49614;SDS011;35517;45.272;9.984;2023-04-24T04:36:16;5.82;;;4.40;;
49614;SDS011;35517;45.272;9.984;2023-04-24T04:38:47;5.10;;;3.65;;
49614;SDS011;35517;45.272;9.984;2023-04-24T04:41:25;4.30;;;3.90;;
49614;SDS011;35517;45.272;9.984;2023-04-24T04:43:52;8.60;;;4.05;;
49614;SDS011;35517;45.272;9.984;2023-04-24T04:46:19;6.38;;;4.18;;
49614;SDS011;35517;45.272;9.984;2023-04-24T04:48:55;7.38;;;4.20;;
49614;SDS011;35517;45.272;9.984;2023-04-24T04:51:23;5.45;;;3.95;;
49614;SDS011;35517;45.272;9.984;2023-04-24T04:53:50;5.95;;;4.28;;
49614;SDS011;35517;45.272;9.984;2023-04-24T04:56:17;9.02;;;5.15;;
49614;SDS011;35517;45.272;9.984;2023-04-24T04:58:45;7.55;;;3.90;;
49614;SDS011;35517;45.272;9.984;2023-04-24T05:01:14;5.97;;;4.72;;
49614;SDS011;35517;45.272;9.984;2023-04-24T05:03:48;7.60;;;4.68;;
49614;SDS011;35517;45.272;9.984;2023-04-24T05:06:16;5.97;;;4.60;;
49614;SDS011;35517;45.272;9.984;2023-04-24T05:08:44;7.05;;;5.57;;
49614;SDS011;35517;45.272;9.984;2023-04-24T05:11:27;8.32;;;4.85;;
49614;SDS011;35517;45.272;9.984;2023-04-24T05:13:55;7.68;;;5.20;;
49614;SDS011;35517;45.272;9.984;2023-04-24T05:16:31;12.95;;;5.43;;
49614;SDS011;35517;45.272;9.984;2023-04-24T05:18:58;5.57;;;4.97;;
49614;SDS011;35517;45.272;9.984;2023-04-24T05:21:30;11.38;;;5.40;;
49614;SDS011;35517;45.272;9.984;2023-04-24T05:23:56;5.95;;;4.75;;
49614;SDS011;35517;45.272;9.984;2023-04-24T05:26:41;8.63;;;5.22;;
49614;SDS011;35517;45.272;9.984;2023-04-24T05:29:09;9.68;;;4.78;;
49614;SDS011;35517;45.272;9.984;2023-04-24T05:31:35;8.40;;;5.80;;
49614;SDS011;35517;45.272;9.984;2023-04-24T05:34:02;6.85;;;5.55;;
49614;SDS011;35517;45.272;9.984;2023-04-24T05:36:29;8.07;;;5.45;;
49614;SDS011;35517;45.272;9.984;2023-04-24T05:38:57;8.07;;;4.95;;
49614;SDS011;35517;45.272;9.984;2023-04-24T05:41:25;6.13;;;5.25;;
49614;SDS011;35517;45.272;9.984;2023-04-24T05:43:51;6.72;;;5.50;;
49614;SDS011;35517;45.272;9.984;2023-04-24T05:46:17;9.30;;;5.60;;
49614;SDS011;35517;45.272;9.984;2023-04-24T05:48:44;10.85;;;6.13;;
49614;SDS011;35517;45.272;9.984;2023-04-24T05:51:11;6.70;;;5.65;;
49614;SDS011;35517;45.272;9.984;2023-04-24T05:53:37;9.73;;;5.35;;
49614;SDS011;35517;45.272;9.984;2023-04-24T05:56:04;11.52;;;7.03;;
49614;SDS011;35517;45.272;9.984;2023-04-24T05:58:31;8.55;;;5.43;;
49614;SDS011;35517;45.272;9.984;2023-04-24T06:00:58;7.07;;;5.85;;
49614;SDS011;35517;45.272;9.984;2023-04-24T06:03:27;5.85;;;5.13;;
49614;SDS011;35517;45.272;9.984;2023-04-24T06:05:55;9.68;;;5.22;;
49614;SDS011;35517;45.272;9.984;2023-04-24T06:08:51;6.38;;;5.43;;
49614;SDS011;35517;45.272;9.984;2023-04-24T06:11:18;8.43;;;6.07;;
49614;SDS011;35517;45.272;9.984;2023-04-24T06:13:44;7.97;;;5.57;;
49614;SDS011;35517;45.272;9.984;2023-04-24T06:16:29;8.52;;;5.35;;
49614;SDS011;35517;45.272;9.984;2023-04-24T06:19:02;9.10;;;5.28;;
49614;SDS011;35517;45.272;9.984;2023-04-24T06:21:29;7.05;;;5.32;;
49614;SDS011;35517;45.272;9.984;2023-04-24T06:23:57;11.57;;;7.30;;
49614;SDS011;35517;45.272;9.984;2023-04-24T06:26:23;6.50;;;4.82;;
49614;SDS011;35517;45.272;9.984;2023-04-24T06:28:53;6.05;;;4.57;;
49614;SDS011;35517;45.272;9.984;2023-04-24T06:31:20;5.78;;;4.80;;
49614;SDS011;35517;45.272;9.984;2023-04-24T06:33:48;9.15;;;4.85;;
49614;SDS011;35517;45.272;9.984;2023-04-24T06:36:15;5.57;;;4.30;;
49614;SDS011;35517;45.272;9.984;2023-04-24T06:38:41;5.43;;;4.80;;
49614;SDS011;35517;45.272;9.984;2023-04-24T06:41:08;8.35;;;4.72;;
49614;SDS011;35517;45.272;9.984;2023-04-24T06:43:34;6.80;;;4.50;;
49614;SDS011;35517;45.272;9.984;2023-04-24T06:46:01;4.80;;;4.30;;
49614;SDS011;35517;45.272;9.984;2023-04-24T06:48:30;7.75;;;4.30;;
49614;SDS011;35517;45.272;9.984;2023-04-24T06:50:56;6.45;;;4.25;;
49614;SDS011;35517;45.272;9.984;2023-04-24T06:53:23;7.45;;;4.45;;
49614;SDS011;35517;45.272;9.984;2023-04-24T06:55:50;6.75;;;4.40;;
49614;SDS011;35517;45.272;9.984;2023-04-24T06:58:27;8.80;;;4.55;;
49614;SDS011;35517;45.272;9.984;2023-04-24T07:00:54;8.68;;;4.32;;
49614;SDS011;35517;45.272;9.984;2023-04-24T07:03:20;8.82;;;5.35;;
49614;SDS011;35517;45.272;9.984;2023-04-24T07:05:48;6.15;;;4.47;;
49614;SDS011;35517;45.272;9.984;2023-04-24T07:08:17;12.00;;;5.70;;
49614;SDS011;35517;45.272;9.984;2023-04-24T07:10:44;6.95;;;5.45;;
49614;SDS011;35517;45.272;9.984;2023-04-24T07:13:16;12.30;;;5.20;;
49614;SDS011;35517;45.272;9.984;2023-04-24T07:15:43;7.07;;;4.70;;
49614;SDS011;35517;45.272;9.984;2023-04-24T07:18:09;5.30;;;4.80;;
49614;SDS011;35517;45.272;9.984;2023-04-24T07:20:36;12.43;;;6.93;;
49614;SDS011;35517;45.272;9.984;2023-04-24T07:23:08;7.03;;;5.30;;
49614;SDS011;35517;45.272;9.984;2023-04-24T07:25:34;8.23;;;5.00;;
49614;SDS011;35517;45.272;9.984;2023-04-24T07:28:00;8.52;;;5.50;;
49614;SDS011;35517;45.272;9.984;2023-04-24T07:30:27;9.57;;;5.22;;
49614;SDS011;35517;45.272;9.984;2023-04-24T07:32:54;8.48;;;5.72;;
49614;SDS011;35517;45.272;9.984;2023-04-24T07:35:21;5.78;;;4.90;;
49614;SDS011;35517;45.272;9.984;2023-04-24T07:37:47;6.80;;;4.93;;
49614;SDS011;35517;45.272;9.984;2023-04-24T07:40:14;9.85;;;6.15;;
49614;SDS011;35517;45.272;9.984;2023-04-24T07:42:40;8.95;;;5.85;;
49614;SDS011;35517;45.272;9.984;2023-04-24T07:45:07;8.90;;;6.50;;
49614;SDS011;35517;45.272;9.984;2023-04-24T07:47:34;10.95;;;6.65;;
49614;SDS011;35517;45.272;9.984;2023-04-24T07:50:00;9.75;;;7.00;;
49614;SDS011;35517;45.272;9.984;2023-04-24T07:52:27;8.70;;;5.90;;
49614;SDS011;35517;45.272;9.984;2023-04-24T07:54:54;5.68;;;5.18;;
49614;SDS011;35517;45.272;9.984;2023-04-24T07:57:24;9.32;;;5.97;;
49614;SDS011;35517;45.272;9.984;2023-04-24T07:59:51;7.07;;;6.18;;
49614;SDS011;35517;45.272;9.984;2023-04-24T08:02:17;8.65;;;5.30;;
49614;SDS011;35517;45.272;9.984;2023-04-24T08:04:44;7.57;;;5.78;;
49614;SDS011;35517;45.272;9.984;2023-04-24T08:07:10;8.85;;;5.57;;
49614;SDS011;35517;45.272;9.984;2023-04-24T08:09:38;9.88;;;5.32;;
49614;SDS011;35517;45.272;9.984;2023-04-24T08:12:05;7.60;;;5.13;;
49614;SDS011;35517;45.272;9.984;2023-04-24T08:14:31;6.15;;;4.43;;
49614;SDS011;35517;45.272;9.984;2023-04-24T08:16:59;14.00;;;5.60;;
49614;SDS011;35517;45.272;9.984;2023-04-24T08:19:26;8.43;;;5.07;;
49614;SDS011;35517;45.272;9.984;2023-04-24T08:21:53;6.20;;;5.00;;
49614;SDS011;35517;45.272;9.984;2023-04-24T08:24:19;9.13;;;4.75;;
49614;SDS011;35517;45.272;9.984;2023-04-24T08:26:46;6.47;;;4.30;;
49614;SDS011;35517;45.272;9.984;2023-04-24T08:29:15;6.97;;;4.57;;
49614;SDS011;35517;45.272;9.984;2023-04-24T08:31:42;6.50;;;4.45;;
49614;SDS011;35517;45.272;9.984;2023-04-24T08:34:09;6.45;;;5.03;;
49614;SDS011;35517;45.272;9.984;2023-04-24T08:36:36;6.22;;;4.78;;
49614;SDS011;35517;45.272;9.984;2023-04-24T08:39:03;11.95;;;5.78;;
49614;SDS011;35517;45.272;9.984;2023-04-24T08:41:30;7.75;;;5.30;;
49614;SDS011;35517;45.272;9.984;2023-04-24T08:43:57;10.60;;;4.85;;
49614;SDS011;35517;45.272;9.984;2023-04-24T08:46:24;6.65;;;5.45;;
49614;SDS011;35517;45.272;9.984;2023-04-24T08:48:52;6.68;;;4.65;;
49614;SDS011;35517;45.272;9.984;2023-04-24T08:51:18;9.85;;;5.38;;
49614;SDS011;35517;45.272;9.984;2023-04-24T08:53:46;10.30;;;4.97;;
49614;SDS011;35517;45.272;9.984;2023-04-24T08:56:12;4.70;;;4.28;;
49614;SDS011;35517;45.272;9.984;2023-04-24T08:58:39;6.00;;;4.90;;
49614;SDS011;35517;45.272;9.984;2023-04-24T09:01:06;8.50;;;5.20;;
49614;SDS011;35517;45.272;9.984;2023-04-24T09:03:33;8.55;;;4.82;;
49614;SDS011;35517;45.272;9.984;2023-04-24T09:06:00;7.90;;;5.40;;
49614;SDS011;35517;45.272;9.984;2023-04-24T09:08:27;5.95;;;4.15;;
49614;SDS011;35517;45.272;9.984;2023-04-24T09:10:54;5.32;;;4.30;;
49614;SDS011;35517;45.272;9.984;2023-04-24T09:13:23;6.53;;;4.65;;
49614;SDS011;35517;45.272;9.984;2023-04-24T09:15:50;6.93;;;4.38;;
49614;SDS011;35517;45.272;9.984;2023-04-24T09:18:17;5.35;;;4.13;;
49614;SDS011;35517;45.272;9.984;2023-04-24T09:23:29;5.22;;;4.00;;
49614;SDS011;35517;45.272;9.984;2023-04-24T09:25:56;5.05;;;4.35;;
49614;SDS011;35517;45.272;9.984;2023-04-24T09:28:32;4.82;;;4.35;;
49614;SDS011;35517;45.272;9.984;2023-04-24T09:31:08;8.98;;;5.15;;
49614;SDS011;35517;45.272;9.984;2023-04-24T09:33:35;6.80;;;5.05;;
49614;SDS011;35517;45.272;9.984;2023-04-24T09:36:02;8.27;;;4.72;;
49614;SDS011;35517;45.272;9.984;2023-04-24T09:38:33;5.90;;;4.47;;
49614;SDS011;35517;45.272;9.984;2023-04-24T09:41:00;6.05;;;3.63;;
49614;SDS011;35517;45.272;9.984;2023-04-24T09:43:29;7.53;;;4.93;;
49614;SDS011;35517;45.272;9.984;2023-04-24T09:45:57;6.60;;;5.03;;
49614;SDS011;35517;45.272;9.984;2023-04-24T09:48:30;5.97;;;5.38;;
49614;SDS011;35517;45.272;9.984;2023-04-24T09:50:57;6.55;;;5.18;;
49614;SDS011;35517;45.272;9.984;2023-04-24T09:53:24;7.03;;;4.90;;
49614;SDS011;35517;45.272;9.984;2023-04-24T09:55:51;6.05;;;5.10;;
49614;SDS011;35517;45.272;9.984;2023-04-24T09:58:24;7.63;;;4.75;;
49614;SDS011;35517;45.272;9.984;2023-04-24T10:00:55;7.05;;;4.50;;
49614;SDS011;35517;45.272;9.984;2023-04-24T10:03:25;4.65;;;4.25;;
49614;SDS011;35517;45.272;9.984;2023-04-24T10:05:58;13.35;;;5.05;;
49614;SDS011;35517;45.272;9.984;2023-04-24T10:08:24;3.80;;;2.90;;
49614;SDS011;35517;45.272;9.984;2023-04-24T10:10:51;4.32;;;2.42;;
49614;SDS011;35517;45.272;9.984;2023-04-24T10:13:18;3.42;;;2.90;;
49614;SDS011;35517;45.272;9.984;2023-04-24T10:15:45;4.40;;;3.53;;
49614;SDS011;35517;45.272;9.984;2023-04-24T10:18:12;4.57;;;3.50;;
49614;SDS011;35517;45.272;9.984;2023-04-24T10:20:42;4.35;;;3.95;;
49614;SDS011;35517;45.272;9.984;2023-04-24T10:23:09;5.38;;;3.38;;
49614;SDS011;35517;45.272;9.984;2023-04-24T10:25:36;3.95;;;3.53;;
49614;SDS011;35517;45.272;9.984;2023-04-24T10:28:03;3.40;;;2.90;;
49614;SDS011;35517;45.272;9.984;2023-04-24T10:30:31;4.53;;;4.13;;
49614;SDS011;35517;45.272;9.984;2023-04-24T10:33:01;6.90;;;4.80;;
49614;SDS011;35517;45.272;9.984;2023-04-24T10:35:30;5.60;;;3.83;;
49614;SDS011;35517;45.272;9.984;2023-04-24T10:38:09;5.15;;;3.40;;
49614;SDS011;35517;45.272;9.984;2023-04-24T10:40:37;6.13;;;3.20;;
49614;SDS011;35517;45.272;9.984;2023-04-24T10:43:07;4.25;;;3.72;;
49614;SDS011;35517;45.272;9.984;2023-04-24T10:45:36;4.70;;;3.53;;
49614;SDS011;35517;45.272;9.984;2023-04-24T10:48:09;5.70;;;3.75;;
49614;SDS011;35517;45.272;9.984;2023-04-24T10:50:42;3.58;;;3.20;;
49614;SDS011;35517;45.272;9.984;2023-04-24T10:53:16;2.95;;;2.25;;
49614;SDS011;35517;45.272;9.984;2023-04-24T10:58:10;6.05;;;3.70;;
49614;SDS011;35517;45.272;9.984;2023-04-24T11:00:41;4.55;;;3.95;;
49614;SDS011;35517;45.272;9.984;2023-04-24T11:03:22;5.78;;;5.13;;
49614;SDS011;35517;45.272;9.984;2023-04-24T11:08:27;6.07;;;3.65;;
49614;SDS011;35517;45.272;9.984;2023-04-24T11:10:56;4.22;;;3.75;;
49614;SDS011;35517;45.272;9.984;2023-04-24T11:14:09;9.88;;;3.80;;
49614;SDS011;35517;45.272;9.984;2023-04-24T11:16:14;6.13;;;3.72;;
49614;SDS011;35517;45.272;9.984;2023-04-24T11:18:44;4.45;;;3.97;;
49614;SDS011;35517;45.272;9.984;2023-04-24T11:21:16;5.13;;;4.63;;
49614;SDS011;35517;45.272;9.984;2023-04-24T11:23:42;9.07;;;4.65;;
49614;SDS011;35517;45.272;9.984;2023-04-24T11:26:10;6.65;;;5.03;;
49614;SDS011;35517;45.272;9.984;2023-04-24T11:28:37;6.07;;;4.63;;
49614;SDS011;35517;45.272;9.984;2023-04-24T11:33:36;7.70;;;5.28;;
49614;SDS011;35517;45.272;9.984;2023-04-24T11:36:02;6.43;;;4.75;;
49614;SDS011;35517;45.272;9.984;2023-04-24T11:38:29;5.65;;;5.13;;
49614;SDS011;35517;45.272;9.984;2023-04-24T11:40:55;7.60;;;5.03;;
49614;SDS011;35517;45.272;9.984;2023-04-24T11:43:22;5.30;;;4.50;;
49614;SDS011;35517;45.272;9.984;2023-04-24T11:45:49;5.85;;;4.93;;
49614;SDS011;35517;45.272;9.984;2023-04-24T11:48:19;6.50;;;4.97;;
49614;SDS011;35517;45.272;9.984;2023-04-24T11:50:46;8.15;;;4.75;;
49614;SDS011;35517;45.272;9.984;2023-04-24T11:53:13;7.53;;;4.55;;
49614;SDS011;35517;45.272;9.984;2023-04-24T11:55:39;5.03;;;4.03;;
49614;SDS011;35517;45.272;9.984;2023-04-24T11:58:06;9.18;;;5.03;;
49614;SDS011;35517;45.272;9.984;2023-04-24T12:00:32;5.78;;;5.03;;
49614;SDS011;35517;45.272;9.984;2023-04-24T12:03:11;7.15;;;5.72;;
49614;SDS011;35517;45.272;9.984;2023-04-24T12:05:38;9.55;;;4.97;;
49614;SDS011;35517;45.272;9.984;2023-04-24T12:08:05;5.97;;;4.78;;
49614;SDS011;35517;45.272;9.984;2023-04-24T12:10:32;6.65;;;4.20;;
49614;SDS011;35517;45.272;9.984;2023-04-24T12:12:59;6.25;;;4.63;;
49614;SDS011;35517;45.272;9.984;2023-04-24T12:15:26;6.43;;;4.65;;
49614;SDS011;35517;45.272;9.984;2023-04-24T12:17:53;6.85;;;5.53;;
49614;SDS011;35517;45.272;9.984;2023-04-24T12:20:38;6.22;;;3.85;;
49614;SDS011;35517;45.272;9.984;2023-04-24T12:23:04;7.40;;;5.03;;
49614;SDS011;35517;45.272;9.984;2023-04-24T12:25:31;7.22;;;5.10;;
49614;SDS011;35517;45.272;9.984;2023-04-24T12:30:32;5.82;;;4.70;;
49614;SDS011;35517;45.272;9.984;2023-04-24T12:32:58;6.63;;;4.47;;
49614;SDS011;35517;45.272;9.984;2023-04-24T12:35:27;4.82;;;3.00;;
49614;SDS011;35517;45.272;9.984;2023-04-24T12:38:12;4.60;;;3.70;;
49614;SDS011;35517;45.272;9.984;2023-04-24T12:40:39;5.32;;;3.45;;
49614;SDS011;35517;45.272;9.984;2023-04-24T12:43:17;5.82;;;4.05;;
49614;SDS011;35517;45.272;9.984;2023-04-24T12:45:44;2.83;;;2.63;;
49614;SDS011;35517;45.272;9.984;2023-04-24T12:48:11;3.13;;;2.00;;
49614;SDS011;35517;45.272;9.984;2023-04-24T12:50:39;3.60;;;3.13;;
49614;SDS011;35517;45.272;9.984;2023-04-24T12:53:06;5.47;;;3.00;;
49614;SDS011;35517;45.272;9.984;2023-04-24T12:55:32;4.25;;;2.80;;
49614;SDS011;35517;45.272;9.984;2023-04-24T12:57:59;7.57;;;2.63;;
49614;SDS011;35517;45.272;9.984;2023-04-24T13:00:27;3.58;;;2.40;;
49614;SDS011;35517;45.272;9.984;2023-04-24T13:02:53;1.95;;;1.10;;
49614;SDS011;35517;45.272;9.984;2023-04-24T13:05:20;2.92;;;1.05;;
49614;SDS011;35517;45.272;9.984;2023-04-24T13:07:46;5.07;;;1.08;;
49614;SDS011;35517;45.272;9.984;2023-04-24T13:10:13;3.38;;;2.78;;
49614;SDS011;35517;45.272;9.984;2023-04-24T13:12:39;1.88;;;1.20;;
49614;SDS011;35517;45.272;9.984;2023-04-24T13:15:06;2.75;;;1.77;;
49614;SDS011;35517;45.272;9.984;2023-04-24T13:17:33;2.42;;;0.95;;
49614;SDS011;35517;45.272;9.984;2023-04-24T13:20:00;1.02;;;0.43;;
49614;SDS011;35517;45.272;9.984;2023-04-24T13:22:26;2.67;;;0.88;;
49614;SDS011;35517;45.272;9.984;2023-04-24T13:24:52;3.22;;;0.50;;
49614;SDS011;35517;45.272;9.984;2023-04-24T13:27:19;1.15;;;0.50;;
49614;SDS011;35517;45.272;9.984;2023-04-24T13:29:46;0.70;;;0.20;;
49614;SDS011;35517;45.272;9.984;2023-04-24T13:32:12;0.43;;;0.30;;
49614;SDS011;35517;45.272;9.984;2023-04-24T13:34:39;0.90;;;0.43;;
49614;SDS011;35517;45.272;9.984;2023-04-24T13:37:06;1.50;;;0.10;;
49614;SDS011;35517;45.272;9.984;2023-04-24T13:39:33;2.25;;;0.40;;
49614;SDS011;35517;45.272;9.984;2023-04-24T13:42:01;4.95;;;1.17;;
49614;SDS011;35517;45.272;9.984;2023-04-24T13:44:27;0.70;;;0.25;;
49614;SDS011;35517;45.272;9.984;2023-04-24T13:46:54;1.13;;;0.40;;
49614;SDS011;35517;45.272;9.984;2023-04-24T13:49:22;0.35;;;0.15;;
49614;SDS011;35517;45.272;9.984;2023-04-24T13:51:50;0.40;;;0.10;;
49614;SDS011;35517;45.272;9.984;2023-04-24T13:54:17;0.20;;;0.10;;
49614;SDS011;35517;45.272;9.984;2023-04-24T13:56:44;0.55;;;0.10;;
49614;SDS011;35517;45.272;9.984;2023-04-24T13:59:12;0.10;;;0.00;;
49614;SDS011;35517;45.272;9.984;2023-04-24T14:01:38;1.85;;;0.10;;
49614;SDS011;35517;45.272;9.984;2023-04-24T14:04:05;0.70;;;0.10;;
49614;SDS011;35517;45.272;9.984;2023-04-24T14:06:31;0.52;;;0.00;;
49614;SDS011;35517;45.272;9.984;2023-04-24T14:08:58;0.60;;;0.10;;
49614;SDS011;35517;45.272;9.984;2023-04-24T14:11:24;0.30;;;0.10;;
49614;SDS011;35517;45.272;9.984;2023-04-24T14:13:52;2.45;;;0.15;;
49614;SDS011;35517;45.272;9.984;2023-04-24T14:16:20;1.75;;;0.10;;
49614;SDS011;35517;45.272;9.984;2023-04-24T14:18:46;0.50;;;0.10;;
49614;SDS011;35517;45.272;9.984;2023-04-24T14:21:12;0.15;;;0.10;;
49614;SDS011;35517;45.272;9.984;2023-04-24T14:23:39;2.17;;;0.20;;
49614;SDS011;35517;45.272;9.984;2023-04-24T14:26:06;0.43;;;0.10;;
49614;SDS011;35517;45.272;9.984;2023-04-24T14:28:32;0.35;;;0.17;;
49614;SDS011;35517;45.272;9.984;2023-04-24T14:30:59;1.10;;;0.17;;
49614;SDS011;35517;45.272;9.984;2023-04-24T14:33:26;1.40;;;0.10;;
49614;SDS011;35517;45.272;9.984;2023-04-24T14:35:52;0.65;;;0.00;;
49614;SDS011;35517;45.272;9.984;2023-04-24T14:38:19;1.35;;;0.10;;
49614;SDS011;35517;45.272;9.984;2023-04-24T14:40:45;0.10;;;0.00;;
49614;SDS011;35517;45.272;9.984;2023-04-24T14:43:12;0.20;;;0.00;;
49614;SDS011;35517;45.272;9.984;2023-04-24T14:45:38;0.10;;;0.00;;
49614;SDS011;35517;45.272;9.984;2023-04-24T14:48:07;3.50;;;0.10;;
49614;SDS011;35517;45.272;9.984;2023-04-24T14:50:33;0.60;;;0.45;;
49614;SDS011;35517;45.272;9.984;2023-04-24T14:53:00;0.57;;;0.20;;
49614;SDS011;35517;45.272;9.984;2023-04-24T14:55:27;1.85;;;0.00;;
49614;SDS011;35517;45.272;9.984;2023-04-24T14:57:54;1.75;;;0.10;;
49614;SDS011;35517;45.272;9.984;2023-04-24T15:00:21;26.85;;;1.65;;
49614;SDS011;35517;45.272;9.984;2023-04-24T15:02:49;2.40;;;0.08;;
49614;SDS011;35517;45.272;9.984;2023-04-24T15:05:15;1.10;;;0.20;;
49614;SDS011;35517;45.272;9.984;2023-04-24T15:07:42;0.98;;;0.10;;
49614;SDS011;35517;45.272;9.984;2023-04-24T15:10:09;0.25;;;0.13;;
49614;SDS011;35517;45.272;9.984;2023-04-24T15:12:35;0.10;;;0.00;;
49614;SDS011;35517;45.272;9.984;2023-04-24T15:15:02;0.28;;;0.10;;
49614;SDS011;35517;45.272;9.984;2023-04-24T15:17:28;0.45;;;0.10;;